Latest Weather Observations for Oakey

IDQ60801

Issued at 4:35 pm EST Thursday 28 August 2014 (issued every 30 minutes, with the page automatically refreshed every 10 minutes)

About weather observations | Map of weather stations | Latest weather observations for QLD | Other Formats
Station Details ID: 041359 Name: OAKEY AERO Lat: -27.40 Lon: 151.74 Height: 405.69 m
Data from the previous 72 hours. | See also: Recent months at Oakey
Date/Time
EST
Temp
°C
App
Temp
°C
Dew
Point
Rel
Hum
%
Delta-T
°C
Wind Press
QNH
hPa
Press
MSL
hPa
Rain
since 9 am
mm
Dir
 
Spd
km/h
Gust
km/h
Spd
kts
Gust
kts
28/04:30pm 19.1 12.8 5.9 42 6.6 SSE 28 39 15 21 1019.6 - 0.0
28/04:00pm 19.7 12.6 5.7 40 7.0 S 32 39 17 21 1019.4 - 0.0
28/03:30pm 20.0 12.4 6.0 40 7.1 S 35 50 19 27 1019.2 - 0.0
28/03:00pm 20.5 13.0 6.4 40 7.2 S 35 44 19 24 1019.0 1019.0 0.0
28/02:30pm 20.7 13.8 7.3 42 7.0 S 33 44 18 24 1018.8 - 0.0
28/02:00pm 20.2 13.3 7.2 43 6.8 S 33 44 18 24 1018.8 - 0.0
28/01:30pm 19.6 13.1 6.7 43 6.6 S 30 39 16 21 1018.7 - 0.0
28/01:00pm 20.1 13.5 7.8 45 6.5 S 32 43 17 23 1018.7 - 0.0
28/12:30pm 19.5 12.7 7.6 46 6.2 S 33 44 18 24 1018.7 - 0.0
28/12:00pm 19.4 12.8 8.4 49 5.8 S 33 44 18 24 1018.8 1018.7 0.0
28/11:30am 18.2 12.5 8.2 52 5.2 S 28 43 15 23 1019.0 - 0.0
28/11:00am 18.7 12.8 8.9 53 5.2 S 30 39 16 21 1019.0 - 0.0
28/10:30am 17.3 10.7 7.9 54 4.9 S 32 44 17 24 1019.0 - 0.0
28/10:00am 17.2 10.9 8.9 58 4.4 S 32 41 17 22 1019.2 - 0.0
28/09:30am 16.3 9.8 8.8 61 3.9 S 33 41 18 22 1019.1 - 0.0
28/09:00am 15.4 10.9 10.0 70 2.9 S 24 32 13 17 1019.2 1019.2 7.2
28/08:30am 14.6 9.7 10.0 74 2.4 S 26 35 14 19 1019.0 - 7.2
28/08:00am 12.3 10.5 9.5 83 1.5 W 9 13 5 7 1018.8 - 7.2
28/07:30am 10.2 7.4 8.6 90 0.8 W 13 15 7 8 1018.3 - 7.2
28/07:00am 8.6 5.6 7.5 93 0.5 WNW 13 15 7 8 1017.8 - 7.2
28/06:30am 7.8 4.9 6.7 93 0.5 W 11 17 6 9 1017.8 - 7.2
28/06:00am 8.4 6.5 6.9 90 0.7 WSW 6 9 3 5 1017.1 1017.1 7.2
28/05:30am 8.4 6.5 7.5 94 0.4 NW 7 11 4 6 1017.1 - 7.2
28/05:00am 7.8 5.6 6.3 90 0.7 S 7 9 4 5 1016.5 - 7.2
28/04:47am 8.2 6.1 6.8 91 0.7 WSW 7 9 4 5 1016.4 - 7.2
28/04:30am 8.9 6.3 7.7 92 0.6 WSW 11 13 6 7 1016.2 - 7.2
28/04:00am 9.6 6.7 8.2 91 0.7 WSW 13 17 7 9 1016.2 - 7.2
28/03:30am 9.9 7.0 8.3 90 0.8 WSW 13 15 7 8 1016.1 - 7.2
28/03:08am 9.9 6.7 8.3 90 0.8 SW 15 20 8 11 1016.0 - 7.2
28/03:00am 9.8 7.0 8.4 91 0.7 SW 13 19 7 10 1016.0 1015.9 7.2
28/02:30am 9.4 6.9 8.3 93 0.5 W 11 15 6 8 1016.1 - 7.2
28/02:12am 9.4 6.9 8.0 91 0.7 WSW 11 13 6 7 1016.2 - 7.2
28/02:00am 9.5 6.5 7.8 89 0.8 SW 13 15 7 8 1016.3 - 7.2
28/01:41am 9.7 6.8 8.0 89 0.8 SW 13 17 7 9 1016.3 - 7.2
28/01:30am 9.7 6.8 8.1 90 0.8 SW 13 17 7 9 1016.4 - 7.2
28/01:00am 9.9 5.3 8.2 89 0.8 SW 22 28 12 15 1016.5 - 7.2
28/12:30am 9.9 5.3 8.2 89 0.8 SW 22 33 12 18 1016.6 - 7.2
28/12:00am 9.9 4.9 8.2 89 0.8 SW 24 32 13 17 1016.5 1016.4 7.2
 
Date/Time
EST
Temp
°C
App
Temp
°C
Dew
Point
Rel
Hum
%
Delta-T
°C
Wind Press
QNH
hPa
Press
MSL
hPa
Rain
since 9 am
mm
Dir
 
Spd
km/h
Gust
km/h
Spd
kts
Gust
kts
27/11:30pm 10.0 5.1 8.6 91 0.7 SW 24 33 13 18 1016.6 - 7.2
27/11:00pm 9.8 5.3 8.4 91 0.7 SW 22 30 12 16 1017.0 - 6.4
27/10:30pm 10.1 4.7 8.0 87 1.0 SW 26 33 14 18 1017.0 - 5.0
27/10:00pm 10.7 5.9 7.2 79 1.7 SW 22 32 12 17 1016.9 - 4.8
27/09:30pm 10.5 5.0 7.4 81 1.5 WSW 26 33 14 18 1016.7 - 4.8
27/09:00pm 10.7 5.4 7.0 78 1.8 SW 24 33 13 18 1017.1 1017.1 4.8
27/08:30pm 10.2 5.7 6.9 80 1.6 SW 20 28 11 15 1017.1 - 4.8
27/08:00pm 9.6 6.3 6.3 80 1.6 SW 13 15 7 8 1017.1 - 4.8
27/07:30pm 9.8 6.5 6.3 79 1.7 S 13 17 7 9 1017.2 - 4.8
27/07:00pm 10.7 6.4 7.0 78 1.8 SW 19 28 10 15 1017.1 - 4.8
27/06:30pm 11.0 7.1 7.1 77 1.9 WSW 17 24 9 13 1016.6 - 4.8
27/06:00pm 11.3 7.4 7.0 75 2.1 SW 17 19 9 10 1016.7 1016.6 4.8
27/05:30pm 11.4 7.4 8.1 80 1.6 SSW 19 24 10 13 1016.8 - 4.8
27/05:00pm 11.7 6.0 8.4 80 1.7 S 28 33 15 18 1016.6 - 4.8
27/04:30pm 12.3 8.3 6.8 69 2.7 SW 17 20 9 11 1015.9 - 4.6
27/04:00pm 11.8 7.5 7.7 76 2.0 S 20 24 11 13 1015.9 - 4.6
27/03:30pm 11.7 7.1 8.2 79 1.8 S 22 26 12 14 1016.1 - 4.4
27/03:00pm 11.8 8.6 8.6 81 1.6 SSE 15 19 8 10 1016.1 1016.0 4.2
27/02:30pm 11.2 8.5 8.8 85 1.2 SSW 13 17 7 9 1016.6 - 3.8
27/02:00pm 11.3 8.4 8.2 81 1.6 SW 13 19 7 10 1016.7 - 2.6
27/01:30pm 11.7 5.9 7.8 77 1.9 WSW 28 39 15 21 1016.5 - 1.8
27/01:00pm 13.9 10.5 11.1 83 1.5 WSW 20 28 11 15 1016.3 - 1.8
27/12:30pm 12.9 8.7 8.2 73 2.4 WSW 20 32 11 17 1016.7 - 1.8
27/12:00pm 14.3 10.3 9.1 71 2.7 WSW 20 26 11 14 1017.1 1017.1 0.0
27/11:30am 15.4 11.4 9.1 66 3.3 WSW 20 24 11 13 1016.9 - 0.0
27/11:00am 15.8 12.2 8.5 62 3.8 WSW 17 22 9 12 1017.1 - 0.0
27/10:30am 16.2 13.5 8.9 62 3.8 WNW 13 17 7 9 1017.3 - 0.0
27/10:00am 15.5 13.5 8.7 64 3.5 W 9 11 5 6 1017.6 - 0.0
27/09:30am 15.9 14.5 8.9 63 3.7 N 6 9 3 5 1017.7 - 0.0
27/09:00am 15.3 14.4 9.4 68 3.1 ENE 4 9 2 5 1017.8 1017.8 0.0
27/08:30am 13.7 12.8 9.4 75 2.2 NE 4 9 2 5 1017.8 - 0.0
27/08:00am 11.4 9.4 8.8 84 1.3 ESE 9 11 5 6 1017.0 - 0.0
27/07:30am 9.3 7.1 7.7 90 0.8 SE 9 11 5 6 1017.1 - 0.0
27/07:00am 8.5 6.7 7.9 96 0.3 S 7 11 4 6 1016.8 - 0.0
27/06:30am 7.4 3.9 7.1 98 0.1 ENE 15 17 8 9 1016.5 - 0.0
27/06:00am 5.9 3.1 5.3 96 0.3 NE 9 13 5 7 1016.3 1016.2 0.0
27/05:30am 6.6 5.3 5.9 95 0.3 SW 2 7 1 4 1016.0 - 0.0
27/05:00am 7.5 4.0 7.2 98 0.1 WNW 15 20 8 11 1016.5 - 0.0
27/04:30am 7.5 5.0 6.6 94 0.4 SSW 9 11 5 6 1015.8 - 0.0
27/04:00am 7.9 4.8 7.3 96 0.3 SW 13 17 7 9 1015.8 - 0.0
27/03:30am 8.1 7.1 7.5 96 0.3 NE 2 7 1 4 1015.3 - 0.0
27/03:00am 8.8 6.0 8.5 98 0.1 ENE 13 15 7 8 1015.7 1015.6 0.0
27/02:52am 7.9 5.2 7.5 97 0.2 ENE 11 11 6 6 1015.8 - 0.0
27/02:30am 6.8 4.1 5.7 93 0.5 SE 9 9 5 5 1016.2 - 0.0
27/02:27am 7.0 4.4 6.3 95 0.3 SE 9 9 5 5 1016.3 - 0.0
27/02:00am 8.2 6.2 7.0 92 0.6 SW 7 9 4 5 1016.8 - 0.0
27/01:30am 9.3 8.9 8.1 92 0.6 CALM 0 0 0 0 1017.0 - 0.0
27/01:00am 9.3 7.5 7.9 91 0.7 NNE 7 9 4 5 1017.4 - 0.0
27/12:30am 10.4 8.4 8.7 89 0.9 NE 9 13 5 7 1017.5 - 0.0
27/12:00am 11.6 9.0 9.3 86 1.2 ESE 13 15 7 8 1017.6 1017.6 0.0
 
Date/Time
EST
Temp
°C
App
Temp
°C
Dew
Point
Rel
Hum
%
Delta-T
°C
Wind Press
QNH
hPa
Press
MSL
hPa
Rain
since 9 am
mm
Dir
 
Spd
km/h
Gust
km/h
Spd
kts
Gust
kts
26/11:30pm 12.4 9.2 10.1 86 1.2 S 17 19 9 10 1017.9 - 0.0
26/11:00pm 13.0 9.4 9.8 81 1.7 S 19 28 10 15 1018.1 - 0.0
26/10:30pm 14.3 10.9 9.3 72 2.6 W 17 20 9 11 1018.6 - 0.0
26/10:00pm 13.8 11.1 8.8 72 2.6 SSE 13 15 7 8 1017.9 - 0.0
26/09:30pm 14.6 11.3 9.6 72 2.6 ENE 17 20 9 11 1017.9 - 0.0
26/09:00pm 13.6 10.0 8.4 71 2.7 NE 17 20 9 11 1017.7 1017.7 0.0
26/08:30pm 14.3 10.7 8.3 67 3.1 NE 17 20 9 11 1017.2 - 0.0
26/08:00pm 13.5 10.5 7.9 69 2.8 NNE 13 17 7 9 1017.0 - 0.0
26/07:30pm 14.9 11.9 7.9 63 3.6 NE 13 15 7 8 1016.8 - 0.0
26/07:00pm 15.9 12.3 8.2 60 4.0 NE 17 20 9 11 1016.5 - 0.0
26/06:30pm 17.0 13.4 8.2 56 4.6 NE 17 20 9 11 1016.3 - 0.0
26/06:00pm 17.2 14.1 7.3 52 5.1 SSE 13 20 7 11 1016.0 1015.9 0.0
26/05:30pm 18.3 16.0 5.8 44 6.3 W 7 9 4 5 1015.5 - 0.0
26/05:00pm 20.7 17.8 4.7 35 8.0 W 9 13 5 7 1015.4 - 0.0
26/04:30pm 21.1 17.9 5.1 35 8.0 WNW 11 17 6 9 1015.2 - 0.0
26/04:00pm 21.8 19.4 5.3 34 8.4 WNW 7 11 4 6 1015.1 - 0.0
26/03:30pm 21.5 19.1 5.4 35 8.2 W 7 15 4 8 1015.0 - 0.0
26/03:00pm 21.6 18.6 5.9 36 8.0 W 11 15 6 8 1015.2 1015.2 0.0
26/02:30pm 21.9 19.8 6.6 37 8.0 NNW 7 13 4 7 1015.3 - 0.0
26/02:00pm 20.2 17.7 6.5 41 7.0 WNW 9 13 5 7 1015.8 - 0.0
26/01:30pm 19.8 17.0 5.1 38 7.3 WSW 9 15 5 8 1016.1 - 0.0
26/01:00pm 21.0 19.2 8.0 43 6.9 WSW 7 15 4 8 1016.5 - 0.0
26/12:30pm 20.1 17.3 7.1 43 6.7 WNW 11 17 6 9 1016.9 - 0.0
26/12:00pm 19.5 18.2 9.1 51 5.6 W 6 13 3 7 1017.5 1017.5 0.0
26/11:30am 18.7 16.0 8.9 53 5.2 SW 13 17 7 9 1018.1 - 0.0
26/11:00am 17.9 16.2 8.2 53 5.1 WSW 7 17 4 9 1018.9 - 0.0
26/10:30am 17.3 15.6 8.2 55 4.7 W 7 13 4 7 1019.2 - 0.0
26/10:00am 16.0 14.1 7.5 57 4.3 W 7 13 4 7 1019.5 - 0.0
26/09:30am 15.0 13.5 9.1 68 3.1 W 7 11 4 6 1019.6 - 0.0
26/09:00am 13.0 12.9 9.3 78 1.9 CALM 0 0 0 0 1019.7 1019.7 0.0
26/08:30am 11.4 10.9 9.3 87 1.1 S 2 6 1 3 1019.7 - 0.0
26/08:00am 9.9 8.9 9.0 94 0.5 E 4 6 2 3 1019.6 - 0.0
26/07:30am 7.8 6.1 7.7 99 0.0 ENE 6 7 3 4 1019.6 - 0.0
26/07:00am 5.9 4.9 5.8 99 0.0 CALM 0 0 0 0 1019.3 - 0.0
26/06:46am 4.5 3.2 4.2 98 0.1 CALM 0 4 0 2 1019.3 - 0.0
26/06:30am 3.4 0.8 3.0 97 0.2 NE 6 7 3 4 1019.1 - 0.0
26/06:19am 3.1 0.4 2.5 96 0.2 NE 6 7 3 4 1019.0 - 0.0
26/06:03am 3.4 0.2 2.8 96 0.2 NE 9 11 5 6 1018.9 - 0.0
26/06:00am 3.5 0.3 2.9 96 0.2 ENE 9 11 5 6 1018.9 1018.8 0.0
26/05:30am 4.0 0.9 3.6 97 0.2 SE 9 11 5 6 1018.5 - 0.0
26/05:00am 4.3 1.3 3.9 97 0.2 S 9 11 5 6 1018.3 - 0.0
26/04:30am 5.0 2.5 4.6 97 0.2 SE 7 9 4 5 1018.0 - 0.0
26/04:03am 5.6 4.5 5.0 96 0.3 CALM 0 0 0 0 1017.9 - 0.0
26/04:00am 5.4 4.2 4.8 96 0.3 CALM 0 0 0 0 1017.9 - 0.0
26/03:39am 5.4 2.9 4.8 96 0.3 NNE 7 9 4 5 1018.0 - 0.0
26/03:30am 5.4 2.9 4.5 94 0.4 NNE 7 9 4 5 1018.1 - 0.0
26/03:17am 5.6 3.1 4.9 95 0.3 NNE 7 7 4 4 1018.4 - 0.0
26/03:00am 5.7 3.2 4.8 94 0.4 N 7 9 4 5 1018.4 1018.3 0.0
26/02:30am 6.9 4.3 6.3 96 0.3 ENE 9 11 5 6 1018.7 - 0.0
26/02:00am 6.7 3.7 6.1 96 0.3 NE 11 13 6 7 1019.2 - 0.0
26/01:30am 7.4 5.3 6.7 95 0.3 S 7 9 4 5 1019.5 - 0.0
26/01:00am 7.2 5.0 6.0 92 0.6 NE 7 9 4 5 1019.7 - 0.0
26/12:30am 8.3 5.9 7.2 93 0.5 NNE 9 11 5 6 1019.9 - 0.0
26/12:00am 8.8 6.6 7.7 93 0.5 NNE 9 11 5 6 1020.1 1020.1 0.0
 
Date/Time
EST
Temp
°C
App
Temp
°C
Dew
Point
Rel
Hum
%
Delta-T
°C
Wind Press
QNH
hPa
Press
MSL
hPa
Rain
since 9 am
mm
Dir
 
Spd
km/h
Gust
km/h
Spd
kts
Gust
kts
25/11:30pm 9.6 7.9 7.5 87 1.0 NNE 6 7 3 4 1020.2 - 0.0
25/11:00pm 10.8 9.5 9.1 89 0.9 NE 6 9 3 5 1020.4 - 0.0
25/10:30pm 11.2 9.7 9.1 87 1.1 E 7 9 4 5 1020.5 - 0.0
25/10:00pm 12.1 9.9 9.5 84 1.3 S 11 15 6 8 1020.7 - 0.0
25/09:30pm 12.3 10.2 9.9 85 1.3 SSW 11 17 6 9 1020.7 - 0.0
25/09:00pm 12.7 10.5 9.3 80 1.8 E 11 17 6 9 1020.5 1020.5 0.0
25/08:30pm 13.3 11.5 9.4 77 2.0 ENE 9 11 5 6 1020.4 - 0.0
25/08:00pm 14.3 12.2 9.9 75 2.3 NE 11 15 6 8 1020.4 - 0.0
25/07:30pm 14.5 12.1 9.9 74 2.4 NE 13 17 7 9 1020.2 - 0.0
25/07:00pm 14.3 11.9 9.9 75 2.3 E 13 15 7 8 1020.1 - 0.0
25/06:30pm 14.3 11.7 9.5 73 2.5 ENE 13 15 7 8 1019.6 - 0.0
25/06:00pm 15.4 12.4 9.1 66 3.3 E 15 17 8 9 1019.5 1019.5 0.0
25/05:30pm 17.3 13.4 9.5 60 4.2 E 20 24 11 13 1019.3 - 0.0
25/05:00pm 19.0 14.3 9.2 53 5.3 E 24 30 13 16 1019.0 - 0.0

Other Formats:

Comma delimited format used in spreadsheet applications
http://www.bom.gov.au/fwo/IDQ60801/IDQ60801.94552.axf

JavaScript Object Notation format (JSON) in row-major order
http://www.bom.gov.au/fwo/IDQ60801/IDQ60801.94552.json